Time;durP1;ratioP1;P1;durP2;ratioP2;P2;SDS_P1;SDS_P2;PMS_P1;PMS_P2;Temp;Humidity;BMP_temperature;BMP_pressure;BME280_temperature;BME280_humidity;BME280_pressure;Samples;Min_cycle;Max_cycle;Signal;HPM_P1;HPM_P2
2023/03/17 00:02:50;;;;;;;;;;;;;;;20.20;49.67;101116.70;2324713;75;50613;-78
2023/03/17 00:06:11;;;;;;;;;;;;;;;20.25;49.83;101116.68;2278457;76;51335;-78
2023/03/17 00:12:52;;;;;;;;;;;;;;;20.32;49.84;101116.25;2324334;76;22395;-78
2023/03/17 00:15:56;;;;;;;;;;;;;;;20.37;49.80;101115.19;2333570;75;50635;-78
2023/03/17 00:18:58;;;;;;;;;;;;;;;20.41;49.77;101111.95;2314007;76;51628;-78
2023/03/17 00:21:59;;;;;;;;;;;;;;;20.45;49.73;101099.83;2331966;75;51427;-78
2023/03/17 00:25:18;;;;;;;;;;;;;;;20.50;49.68;101095.73;2326512;75;50360;-78
2023/03/17 00:28:21;;;;;;;;;;;;;;;20.50;49.66;101088.53;2332314;75;51463;-77
2023/03/17 00:31:28;;;;;;;;;;;;;;;20.46;49.75;101096.62;2302862;76;52295;-77
2023/03/17 00:34:29;;;;;;;;;;;;;;;20.43;49.83;101094.31;2335379;75;51547;-77
2023/03/17 00:37:33;;;;;;;;;;;;;;;20.37;49.94;101085.63;2324941;76;51460;-76
2023/03/17 00:44:14;;;;;;;;;;;;;;;20.28;50.16;101082.72;2314527;76;21731;-78
2023/03/17 00:47:16;;;;;;;;;;;;;;;20.22;50.42;101075.72;2289168;75;51210;-78
2023/03/17 00:50:20;;;;;;;;;;;;;;;20.25;50.47;101070.48;2321308;76;51536;-78
2023/03/17 00:53:22;;;;;;;;;;;;;;;20.30;50.42;101061.88;2330475;75;22432;-77
2023/03/17 00:56:24;;;;;;;;;;;;;;;20.34;50.38;101057.78;2324908;76;52406;-78
2023/03/17 00:59:27;;;;;;;;;;;;;;;20.39;50.29;101043.28;2321040;76;51579;-78
2023/03/17 01:02:32;;;;;;;;;;;;;;;20.44;50.15;101037.66;2343133;75;50307;-77
2023/03/17 01:05:36;;;;;;;;;;;;;;;20.47;50.06;101031.08;2321643;76;50721;-77
2023/03/17 01:08:39;;;;;;;;;;;;;;;20.45;50.03;101032.63;2285265;76;52384;-77
2023/03/17 01:11:42;;;;;;;;;;;;;;;20.42;50.09;101025.43;2349366;75;51591;-77
2023/03/17 01:14:45;;;;;;;;;;;;;;;20.35;50.17;101030.73;2338281;75;51588;-77
2023/03/17 01:17:49;;;;;;;;;;;;;;;20.31;50.25;101036.14;2323678;75;51575;-77
2023/03/17 01:20:52;;;;;;;;;;;;;;;20.28;50.35;101027.63;2331408;75;22326;-77
2023/03/17 01:23:57;;;;;;;;;;;;;;;20.21;50.41;101019.45;2325916;75;51550;-77
2023/03/17 01:27:06;;;;;;;;;;;;;;;20.19;50.57;101026.38;2321524;75;22448;-77
2023/03/17 01:30:12;;;;;;;;;;;;;;;20.21;50.62;101022.97;2319626;75;51610;-77
2023/03/17 01:33:17;;;;;;;;;;;;;;;20.26;50.59;101029.66;2307461;76;22481;-77
2023/03/17 01:36:19;;;;;;;;;;;;;;;20.29;50.50;101018.02;2316334;75;22400;-77
2023/03/17 01:39:38;;;;;;;;;;;;;;;20.33;50.42;101016.64;2321329;75;50701;-77
2023/03/17 01:43:03;;;;;;;;;;;;;;;20.38;50.32;101004.00;2327275;75;52508;-78
2023/03/17 01:46:21;;;;;;;;;;;;;;;20.42;50.18;100995.87;2342482;75;51684;-78
2023/03/17 01:49:37;;;;;;;;;;;;;;;20.45;50.12;100988.80;2292379;76;51930;-77
2023/03/17 01:52:40;;;;;;;;;;;;;;;20.48;50.02;101003.72;2328101;75;50846;-78
2023/03/17 01:55:42;;;;;;;;;;;;;;;20.44;50.05;100986.59;2349434;75;51520;-78
2023/03/17 01:58:45;;;;;;;;;;;;;;;20.40;50.07;100985.84;2337788;75;50768;-78
2023/03/17 02:01:49;;;;;;;;;;;;;;;20.36;50.15;100979.16;2308914;75;52501;-78
2023/03/17 02:05:13;;;;;;;;;;;;;;;20.29;50.25;100980.39;2322253;76;51491;-78
2023/03/17 02:08:15;;;;;;;;;;;;;;;20.25;50.36;100972.92;2325570;75;50181;-78
2023/03/17 02:11:39;;;;;;;;;;;;;;;20.19;50.45;100971.78;2336825;75;50501;-78
2023/03/17 02:14:44;;;;;;;;;;;;;;;20.20;50.57;100974.81;2333732;75;22301;-78
2023/03/17 02:17:46;;;;;;;;;;;;;;;20.24;50.53;100969.37;2289468;77;22372;-78
2023/03/17 02:20:51;;;;;;;;;;;;;;;20.30;50.42;100964.62;2339177;75;51541;-76
2023/03/17 02:23:52;;;;;;;;;;;;;;;20.35;50.36;100955.48;2324064;75;22409;-77
2023/03/17 02:27:13;;;;;;;;;;;;;;;20.40;50.17;100954.41;2320538;76;50265;-77
2023/03/17 02:30:19;;;;;;;;;;;;;;;20.41;50.10;100952.03;2332395;75;50114;-77
2023/03/17 02:33:24;;;;;;;;;;;;;;;20.37;50.12;100961.51;2347325;75;51582;-77
2023/03/17 02:40:06;;;;;;;;;;;;;;;20.29;50.18;100953.52;2322267;75;22429;-77
2023/03/17 02:43:14;;;;;;;;;;;;;;;20.22;50.29;100945.39;2324530;76;22638;-75
2023/03/17 02:46:19;;;;;;;;;;;;;;;20.18;50.33;100950.80;2333053;75;50213;-76
2023/03/17 02:49:22;;;;;;;;;;;;;;;20.13;50.44;100941.13;2333393;75;51549;-77
2023/03/17 02:52:25;;;;;;;;;;;;;;;20.15;50.51;100943.13;2329446;75;50332;-76
2023/03/17 02:55:28;;;;;;;;;;;;;;;20.17;50.49;100945.13;2260915;75;51262;-75
2023/03/17 02:58:31;;;;;;;;;;;;;;;20.21;50.42;100936.16;2344906;75;50691;-76
2023/03/17 03:01:39;;;;;;;;;;;;;;;20.26;50.30;100933.75;2333393;75;22752;-76
2023/03/17 03:04:40;;;;;;;;;;;;;;;20.31;50.18;100938.05;2330556;75;22375;-76
2023/03/17 03:07:42;;;;;;;;;;;;;;;20.36;50.03;100936.98;2318730;75;52490;-76
2023/03/17 03:10:45;;;;;;;;;;;;;;;20.40;49.96;100949.55;2354205;75;50194;-76
2023/03/17 03:13:47;;;;;;;;;;;;;;;20.43;49.81;100941.11;2327574;76;22475;-75
2023/03/17 03:16:48;;;;;;;;;;;;;;;20.41;49.79;100933.73;2343610;76;51609;-76
2023/03/17 03:19:53;;;;;;;;;;;;;;;20.37;49.83;100945.39;2301710;75;50329;-76
2023/03/17 03:22:55;;;;;;;;;;;;;;;20.32;49.87;100941.08;2327212;75;50809;-76
2023/03/17 03:25:56;;;;;;;;;;;;;;;20.29;49.94;100954.04;2321668;75;51657;-76
2023/03/17 03:28:59;;;;;;;;;;;;;;;20.23;50.01;100948.39;2325408;76;51464;-76
2023/03/17 03:32:03;;;;;;;;;;;;;;;20.18;50.10;100959.37;2286738;75;51212;-76
2023/03/17 03:35:07;;;;;;;;;;;;;;;20.14;50.18;100971.02;2326032;75;51557;-77
2023/03/17 03:38:12;;;;;;;;;;;;;;;20.18;50.23;100958.86;2336349;75;22336;-76
2023/03/17 03:41:15;;;;;;;;;;;;;;;20.22;50.14;100948.59;2328263;75;50668;-76
2023/03/17 03:44:21;;;;;;;;;;;;;;;20.27;50.07;100948.87;2333346;75;51588;-77
2023/03/17 03:47:26;;;;;;;;;;;;;;;20.33;49.93;100944.59;2328814;75;23163;-76
2023/03/17 03:50:29;;;;;;;;;;;;;;;20.37;49.81;100947.22;2305367;76;52244;-75
2023/03/17 03:53:32;;;;;;;;;;;;;;;20.38;49.71;100946.22;2326153;76;50392;-76
2023/03/17 03:56:35;;;;;;;;;;;;;;;20.37;49.68;100953.94;2318185;75;50060;-76
2023/03/17 03:59:38;;;;;;;;;;;;;;;20.34;49.68;100943.56;2335686;75;50664;-76
2023/03/17 04:02:42;;;;;;;;;;;;;;;20.28;49.74;100951.05;2316176;75;49922;-76
2023/03/17 04:05:47;;;;;;;;;;;;;;;20.23;49.81;100944.36;2322996;75;51654;-76
2023/03/17 04:08:50;;;;;;;;;;;;;;;20.18;49.88;100942.75;2325221;75;22869;-76
2023/03/17 04:11:55;;;;;;;;;;;;;;;20.13;49.89;100949.19;2333875;75;51530;-76
2023/03/17 04:14:57;;;;;;;;;;;;;;;20.12;50.02;100948.87;2314052;76;22445;-76
2023/03/17 04:18:20;;;;;;;;;;;;;;;20.14;50.02;100940.61;2346760;75;22996;-76
2023/03/17 04:21:21;;;;;;;;;;;;;;;20.18;49.95;100945.43;2293122;75;50872;-76
2023/03/17 04:24:29;;;;;;;;;;;;;;;20.22;49.85;100934.65;2334068;75;51609;-76
2023/03/17 04:27:34;;;;;;;;;;;;;;;20.27;49.80;100929.20;2329049;75;51780;-78
2023/03/17 04:30:38;;;;;;;;;;;;;;;20.31;49.73;100929.16;2303508;76;50320;-76
2023/03/17 04:33:39;;;;;;;;;;;;;;;20.35;49.60;100920.55;2331712;75;22510;-76
2023/03/17 04:36:44;;;;;;;;;;;;;;;20.37;49.49;100914.97;2337573;75;22394;-76
2023/03/17 04:39:46;;;;;;;;;;;;;;;20.34;49.45;100909.45;2361548;75;50703;-76
2023/03/17 04:42:51;;;;;;;;;;;;;;;20.31;49.50;100914.38;2315715;76;22292;-75
2023/03/17 04:45:56;;;;;;;;;;;;;;;20.26;49.54;100914.11;2315836;75;22291;-78
2023/03/17 04:48:59;;;;;;;;;;;;;;;20.20;49.61;100920.56;2327040;75;51548;-76
2023/03/17 04:52:00;;;;;;;;;;;;;;;;;;2314604;75;51465;-76
2023/03/17 04:55:04;;;;;;;;;;;;;;;20.13;49.68;100918.29;2342012;75;50408;-76
2023/03/17 04:58:06;;;;;;;;;;;;;;;20.10;49.79;100913.30;2303488;75;50944;-77
2023/03/17 05:01:09;;;;;;;;;;;;;;;20.12;49.83;100912.61;2314159;75;50770;-75
2023/03/17 05:04:13;;;;;;;;;;;;;;;20.17;49.75;100914.22;2314027;75;50279;-76
2023/03/17 05:07:15;;;;;;;;;;;;;;;20.23;49.68;100909.43;2334782;75;50871;-76
2023/03/17 05:10:16;;;;;;;;;;;;;;;20.29;49.55;100915.91;2331569;75;51687;-76
2023/03/17 05:13:19;;;;;;;;;;;;;;;20.33;49.44;100910.48;2289886;76;51594;-76
2023/03/17 05:16:23;;;;;;;;;;;;;;;20.35;49.33;100911.14;2325860;75;51445;-76
2023/03/17 05:23:03;;;;;;;;;;;;;;;20.30;49.31;100891.23;2334594;75;22216;-76
2023/03/17 05:26:09;;;;;;;;;;;;;;;20.22;49.42;100890.31;2301409;76;50638;-76
2023/03/17 05:29:11;;;;;;;;;;;;;;;20.18;49.50;100894.38;2328426;75;23502;-76
2023/03/17 05:32:14;;;;;;;;;;;;;;;20.13;49.51;100900.83;2331445;75;50690;-77
2023/03/17 05:35:17;;;;;;;;;;;;;;;20.09;49.58;100902.24;2336772;75;51559;-76
2023/03/17 05:38:22;;;;;;;;;;;;;;;20.07;49.66;100905.62;2301700;75;50057;-76
2023/03/17 05:41:26;;;;;;;;;;;;;;;20.08;49.70;100896.52;2347101;75;22977;-76
2023/03/17 05:44:29;;;;;;;;;;;;;;;20.14;49.62;100888.22;2321693;75;51522;-77
2023/03/17 05:47:35;;;;;;;;;;;;;;;20.19;49.53;100900.59;2321476;75;52566;-76
2023/03/17 05:50:41;;;;;;;;;;;;;;;20.22;49.45;100905.61;2332662;75;22271;-76
2023/03/17 05:53:43;;;;;;;;;;;;;;;20.28;49.35;100894.61;2324636;75;51646;-76
2023/03/17 05:56:46;;;;;;;;;;;;;;;20.32;49.23;100903.95;2330023;75;51449;-77
2023/03/17 05:59:48;;;;;;;;;;;;;;;20.34;49.13;100911.31;2308802;76;51345;-76
2023/03/17 06:02:51;;;;;;;;;;;;;;;20.33;49.11;100916.38;2320246;75;51431;-77
2023/03/17 06:05:56;;;;;;;;;;;;;;;20.28;49.15;100910.73;2326095;76;22308;-77
2023/03/17 06:08:58;;;;;;;;;;;;;;;20.25;49.20;100911.12;2325193;75;23002;-77
2023/03/17 06:12:00;;;;;;;;;;;;;;;20.21;48.95;100911.98;2282861;76;49658;-76
2023/03/17 06:15:04;;;;;;;;;;;;;;;20.14;48.83;100893.11;2315133;75;51557;-77
2023/03/17 06:18:08;;;;;;;;;;;;;;;20.10;48.93;100887.78;2320587;76;51504;-76
2023/03/17 06:21:11;;;;;;;;;;;;;;;20.09;48.99;100887.47;2307855;76;51819;-76
2023/03/17 06:24:13;;;;;;;;;;;;;;;20.11;49.07;100894.80;2293865;76;49673;-76
2023/03/17 06:27:19;;;;;;;;;;;;;;;20.16;49.06;100896.94;2314941;75;50477;-75
2023/03/17 06:30:22;;;;;;;;;;;;;;;20.22;48.97;100906.95;2321712;75;50693;-77
2023/03/17 06:33:24;;;;;;;;;;;;;;;20.25;48.94;100907.09;2346357;75;50740;-77
2023/03/17 06:36:42;;;;;;;;;;;;;;;20.31;48.84;100904.98;2332759;75;52406;-76
2023/03/17 06:39:46;;;;;;;;;;;;;;;20.33;48.80;100893.02;2302568;76;51683;-76
2023/03/17 06:42:48;;;;;;;;;;;;;;;20.34;48.67;100888.47;2292545;75;50114;-76
2023/03/17 06:45:53;;;;;;;;;;;;;;;20.30;48.68;100892.58;2305011;76;50066;-78
2023/03/17 06:48:56;;;;;;;;;;;;;;;20.27;48.77;100896.95;2305193;75;51432;-77
2023/03/17 06:51:59;;;;;;;;;;;;;;;20.22;48.86;100896.20;2332249;75;50676;-78
2023/03/17 06:55:03;;;;;;;;;;;;;;;20.19;48.89;100892.04;2336594;75;51607;-77
2023/03/17 06:58:09;;;;;;;;;;;;;;;20.13;49.00;100880.68;2325693;75;50272;-76
2023/03/17 07:01:13;;;;;;;;;;;;;;;20.09;49.07;100870.48;2310764;75;50666;-76
2023/03/17 07:04:16;;;;;;;;;;;;;;;20.10;49.14;100874.34;2320934;76;51512;-76
2023/03/17 07:07:19;;;;;;;;;;;;;;;20.15;49.09;100869.76;2332246;75;50304;-76
2023/03/17 07:10:22;;;;;;;;;;;;;;;20.20;49.04;100875.40;2306940;76;50795;-76
2023/03/17 07:13:26;;;;;;;;;;;;;;;20.26;48.92;100867.92;2283898;75;50686;-77
2023/03/17 07:16:31;;;;;;;;;;;;;;;20.30;48.78;100873.25;2347125;75;51535;-77
2023/03/17 07:19:34;;;;;;;;;;;;;;;20.35;48.70;100864.63;2330206;75;50400;-77
2023/03/17 07:22:35;;;;;;;;;;;;;;;20.39;48.63;100857.83;2324985;75;52468;-77
2023/03/17 07:25:44;;;;;;;;;;;;;;;20.41;48.53;100850.42;2302707;76;52404;-77
2023/03/17 07:28:46;;;;;;;;;;;;;;;20.38;48.54;100847.59;2357941;75;50330;-76
2023/03/17 07:31:53;;;;;;;;;;;;;;;20.36;48.64;100847.47;2296329;76;53020;-75
2023/03/17 07:34:57;;;;;;;;;;;;;;;20.35;48.80;100835.06;2313687;75;50297;-77
2023/03/17 07:38:00;;;;;;;;;;;;;;;20.34;48.86;100823.45;2321971;75;22571;-76
2023/03/17 07:41:03;;;;;;;;;;;;;;;20.32;48.90;100828.70;2319256;75;50459;-77
2023/03/17 07:44:05;;;;;;;;;;;;;;;20.28;48.85;100847.59;2325119;75;50710;-77
2023/03/17 07:47:08;;;;;;;;;;;;;;;20.27;48.96;100816.34;2343066;75;51508;-77
2023/03/17 07:50:13;;;;;;;;;;;;;;;20.29;48.90;100818.34;2315357;75;52595;-76
2023/03/17 07:53:15;;;;;;;;;;;;;;;20.31;48.82;100835.94;2322212;76;22226;-76
2023/03/17 07:59:54;;;;;;;;;;;;;;;20.38;48.69;100840.05;2321570;75;22489;-77
2023/03/17 08:02:57;;;;;;;;;;;;;;;20.46;48.62;100843.95;2309540;76;50262;-77
2023/03/17 08:05:59;;;;;;;;;;;;;;;20.48;48.58;100841.92;2329597;75;50261;-78
2023/03/17 08:09:03;;;;;;;;;;;;;;;20.49;48.52;100836.02;2336649;75;50911;-77
2023/03/17 08:12:10;;;;;;;;;;;;;;;20.47;48.56;100835.38;2344265;75;22439;-80
2023/03/17 08:15:16;;;;;;;;;;;;;;;20.43;48.57;100843.83;2329243;75;22798;-78
2023/03/17 08:18:18;;;;;;;;;;;;;;;20.42;48.61;100844.86;2328215;75;22415;-79
2023/03/17 08:21:20;;;;;;;;;;;;;;;20.40;48.57;100837.50;2308261;75;50798;-79
2023/03/17 08:24:22;;;;;;;;;;;;;;;20.33;48.56;100827.18;2306212;75;51090;-79
2023/03/17 08:27:24;;;;;;;;;;;;;;;20.32;48.56;100836.77;2291232;75;52257;-77
2023/03/17 08:41:22;;;;;;;;;;;;;;;20.44;48.43;100828.53;2335779;75;23137;-78
2023/03/17 08:44:26;;;;;;;;;;;;;;;20.47;48.34;100834.86;2328685;75;50327;-79
2023/03/17 08:51:08;;;;;;;;;;;;;;;20.42;48.35;100830.08;2340301;75;22405;-78
2023/03/17 08:54:12;;;;;;;;;;;;;;;20.39;48.39;100810.80;2320025;75;50153;-78
2023/03/17 08:57:15;;;;;;;;;;;;;;;20.36;48.41;100803.13;2336942;75;50029;-78
2023/03/17 09:00:23;;;;;;;;;;;;;;;20.30;48.49;100794.50;2322417;75;50514;-78
2023/03/17 09:03:25;;;;;;;;;;;;;;;20.25;48.56;100785.66;2295858;76;50757;-78
2023/03/17 09:06:27;;;;;;;;;;;;;;;20.25;48.61;100783.48;2309279;75;51226;-78
2023/03/17 09:09:33;;;;;;;;;;;;;;;20.25;48.67;100794.23;2317833;76;51638;-78
2023/03/17 09:12:35;;;;;;;;;;;;;;;20.29;48.60;100783.41;2327005;75;22418;-78
2023/03/17 09:15:39;;;;;;;;;;;;;;;20.33;48.54;100782.84;2321743;76;50252;-78
2023/03/17 09:18:42;;;;;;;;;;;;;;;20.38;48.46;100775.03;2328964;75;22344;-78
2023/03/17 09:21:45;;;;;;;;;;;;;;;20.44;48.36;100777.46;2330323;75;50655;-78
2023/03/17 09:24:52;;;;;;;;;;;;;;;20.48;48.25;100777.41;2321678;76;50257;-78
2023/03/17 09:27:53;;;;;;;;;;;;;;;20.48;48.17;100780.09;2329700;75;23285;-78
2023/03/17 09:31:04;;;;;;;;;;;;;;;20.46;48.20;100764.66;2293352;76;22248;-77
2023/03/17 09:34:08;;;;;;;;;;;;;;;20.43;48.24;100769.09;2344372;75;51545;-78
2023/03/17 09:37:14;;;;;;;;;;;;;;;20.39;48.33;100765.11;2324092;75;22391;-78
2023/03/17 09:40:20;;;;;;;;;;;;;;;20.35;48.38;100770.56;2344291;75;22554;-78
2023/03/17 09:43:30;;;;;;;;;;;;;;;20.30;48.45;100767.62;2345248;75;22310;-79
2023/03/17 09:46:40;;;;;;;;;;;;;;;20.27;48.46;100766.15;2324089;76;22559;-77
2023/03/17 09:49:44;;;;;;;;;;;;;;;20.27;48.54;100773.35;2329903;75;22441;-77
2023/03/17 09:52:51;;;;;;;;;;;;;;;20.32;48.49;100770.92;2306259;77;50661;-77
2023/03/17 09:55:53;;;;;;;;;;;;;;;20.37;48.45;100771.18;2313499;75;22387;-78
2023/03/17 09:58:57;;;;;;;;;;;;;;;20.42;48.33;100771.44;2325109;75;50571;-77
2023/03/17 10:02:01;;;;;;;;;;;;;;;20.44;48.28;100762.16;2328960;75;51475;-76
2023/03/17 10:05:05;;;;;;;;;;;;;;;20.48;48.18;100762.63;2332666;75;50332;-77
2023/03/17 10:08:11;;;;;;;;;;;;;;;20.51;48.06;100758.20;2315607;75;51229;-77
2023/03/17 10:11:17;;;;;;;;;;;;;;;20.51;48.02;100748.80;2339369;75;50282;-78
2023/03/17 10:14:26;;;;;;;;;;;;;;;20.47;48.03;100744.81;2326329;76;50041;-77
2023/03/17 10:17:33;;;;;;;;;;;;;;;20.44;48.06;100746.03;2318356;75;55646;-77
2023/03/17 10:20:35;;;;;;;;;;;;;;;20.41;48.12;100745.60;2297808;75;51230;-76
2023/03/17 10:23:37;;;;;;;;;;;;;;;20.34;48.22;100749.55;2317220;76;50680;-77
2023/03/17 10:26:41;;;;;;;;;;;;;;;20.31;48.27;100761.21;2294266;76;22305;-76
2023/03/17 10:29:45;;;;;;;;;;;;;;;20.30;48.27;100756.36;2320069;76;50408;-77
2023/03/17 10:32:50;;;;;;;;;;;;;;;20.32;48.33;100753.45;2291927;75;51419;-77
2023/03/17 10:35:53;;;;;;;;;;;;;;;20.36;48.28;100749.37;2357018;75;22337;-77
2023/03/17 10:38:57;;;;;;;;;;;;;;;20.40;48.22;100747.46;2339871;75;21778;-77
2023/03/17 10:42:10;;;;;;;;;;;;;;;20.44;48.15;100745.20;2357852;75;49986;-77
2023/03/17 10:45:23;;;;;;;;;;;;;;;20.48;48.07;100745.16;2293769;76;52452;-77
2023/03/17 10:48:41;;;;;;;;;;;;;;;20.51;47.93;100738.05;2320609;75;23098;-77
2023/03/17 10:51:45;;;;;;;;;;;;;;;20.49;47.93;100733.36;2321117;75;51178;-77
2023/03/17 10:54:51;;;;;;;;;;;;;;;20.43;47.99;100728.26;2316391;76;52388;-77
2023/03/17 10:57:54;;;;;;;;;;;;;;;20.41;48.04;100725.44;2316362;75;50196;-77
2023/03/17 11:01:04;;;;;;;;;;;;;;;20.37;48.12;100720.12;2298171;76;51277;-77
2023/03/17 11:04:23;;;;;;;;;;;;;;;20.34;48.13;100717.31;2336826;75;22287;-78
2023/03/17 11:07:30;;;;;;;;;;;;;;;20.30;48.18;100716.05;2335631;75;51572;-77
2023/03/17 11:10:33;;;;;;;;;;;;;;;20.28;48.30;100714.58;2324081;75;50079;-77
2023/03/17 11:13:36;;;;;;;;;;;;;;;20.30;48.30;100703.13;2265040;75;51162;-78
2023/03/17 11:16:41;;;;;;;;;;;;;;;20.35;48.20;100705.55;2325454;76;50670;-77
2023/03/17 11:19:44;;;;;;;;;;;;;;;20.40;48.12;100696.91;2328711;75;50180;-78
2023/03/17 11:22:47;;;;;;;;;;;;;;;20.43;48.09;100694.66;2319638;76;50503;-77
2023/03/17 11:25:51;;;;;;;;;;;;;;;20.47;48.01;100698.30;2325008;75;51577;-78
2023/03/17 11:28:58;;;;;;;;;;;;;;;20.49;47.91;100704.31;2335090;75;51489;-77
2023/03/17 11:32:01;;;;;;;;;;;;;;;20.48;47.89;100698.12;2319057;75;51478;-77
2023/03/17 11:35:05;;;;;;;;;;;;;;;20.44;47.95;100699.52;2326752;75;50309;-77
2023/03/17 11:38:29;;;;;;;;;;;;;;;20.40;48.01;100692.88;2331257;75;22440;-78
2023/03/17 11:41:48;;;;;;;;;;;;;;;20.36;48.10;100687.56;2344977;75;22371;-78
2023/03/17 11:44:55;;;;;;;;;;;;;;;20.30;48.18;100690.52;2322146;76;50759;-77
2023/03/17 11:47:58;;;;;;;;;;;;;;;20.31;48.16;100688.66;2330396;75;50296;-78
2023/03/17 11:51:12;;;;;;;;;;;;;;;20.31;48.19;100688.66;2336041;75;50663;-78
2023/03/17 11:58:00;;;;;;;;;;;;;;;20.39;48.12;100685.83;2320926;75;22355;-78
2023/03/17 12:01:07;;;;;;;;;;;;;;;20.44;48.01;100680.70;2309172;76;22316;-77
2023/03/17 12:04:28;;;;;;;;;;;;;;;20.50;47.91;100675.05;2281673;77;50983;-76
2023/03/17 12:07:32;;;;;;;;;;;;;;;20.56;47.77;100668.43;2308146;75;22451;-76
2023/03/17 12:10:41;;;;;;;;;;;;;;;20.55;47.74;100672.64;2318164;75;22565;-76
2023/03/17 12:13:57;;;;;;;;;;;;;;;20.53;47.75;100672.00;2324787;75;50497;-77
2023/03/17 12:17:18;;;;;;;;;;;;;;;20.48;47.85;100674.45;2300597;76;50652;-77
2023/03/17 12:20:22;;;;;;;;;;;;;;;20.43;47.91;100664.27;2331715;75;50285;-77
2023/03/17 12:27:20;;;;;;;;;;;;;;;20.36;48.08;100652.62;2320027;76;24462;-78
2023/03/17 12:30:45;;;;;;;;;;;;;;;20.33;48.10;100653.02;2328888;75;22581;-78
2023/03/17 12:34:07;;;;;;;;;;;;;;;20.35;48.13;100647.77;2354097;75;22545;-79
2023/03/17 12:37:08;;;;;;;;;;;;;;;20.43;48.05;100645.45;2302363;75;22380;-77
2023/03/17 12:40:16;;;;;;;;;;;;;;;20.49;47.98;100651.38;2346607;75;22404;-76
2023/03/17 12:43:28;;;;;;;;;;;;;;;20.53;47.93;100644.60;2309328;76;50204;-76
2023/03/17 12:46:48;;;;;;;;;;;;;;;20.57;47.90;100638.34;2328159;75;50787;-76
2023/03/17 12:50:09;;;;;;;;;;;;;;;20.60;47.76;100634.77;2343326;75;51509;-77
2023/03/17 12:53:28;;;;;;;;;;;;;;;20.60;47.75;100626.70;2334273;75;51508;-77
2023/03/17 12:56:33;;;;;;;;;;;;;;;20.57;47.82;100624.90;2358767;75;50478;-76
2023/03/17 12:59:37;;;;;;;;;;;;;;;20.53;47.89;100609.66;2331342;75;22443;-77
2023/03/17 13:02:41;;;;;;;;;;;;;;;20.48;47.96;100609.41;2334601;75;50480;-77
2023/03/17 13:05:47;;;;;;;;;;;;;;;20.44;48.07;100606.79;2346259;75;22344;-77
2023/03/17 13:08:53;;;;;;;;;;;;;;;20.40;48.12;100603.68;2370397;75;22216;-78
2023/03/17 13:11:56;;;;;;;;;;;;;;;20.40;48.21;100617.64;2369993;75;51492;-78
2023/03/17 13:14:59;;;;;;;;;;;;;;;20.46;48.16;100614.16;2363892;75;51533;-78
2023/03/17 13:18:18;;;;;;;;;;;;;;;20.49;48.20;100615.62;2323506;75;50661;-78
2023/03/17 13:21:21;;;;;;;;;;;;;;;20.54;48.09;100607.30;2318107;76;22433;-77
2023/03/17 13:24:49;;;;;;;;;;;;;;;20.59;48.01;100607.55;2323645;75;22373;-77
2023/03/17 13:27:52;;;;;;;;;;;;;;;20.63;47.87;100609.34;2330021;75;22173;-77
2023/03/17 13:30:58;;;;;;;;;;;;;;;20.59;47.93;100602.17;2348193;75;50288;-77
2023/03/17 13:34:03;;;;;;;;;;;;;;;20.56;48.02;100598.54;2320083;76;22288;-77
2023/03/17 13:37:27;;;;;;;;;;;;;;;20.53;48.07;100599.42;2342935;75;51482;-77
2023/03/17 13:40:33;;;;;;;;;;;;;;;20.50;48.13;100585.87;2333121;75;22427;-76
2023/03/17 13:43:43;;;;;;;;;;;;;;;20.45;48.20;100589.66;2343639;75;51454;-76
2023/03/17 13:46:47;;;;;;;;;;;;;;;20.42;48.28;100584.65;2331285;75;22365;-77
2023/03/17 13:49:53;;;;;;;;;;;;;;;20.41;48.39;100585.69;2352856;75;50771;-76
2023/03/17 13:52:56;;;;;;;;;;;;;;;20.46;48.37;100592.65;2324585;75;21716;-77
2023/03/17 13:56:10;;;;;;;;;;;;;;;20.49;48.36;100594.94;2324188;75;50450;-76
2023/03/17 13:59:18;;;;;;;;;;;;;;;20.54;48.31;100595.20;2320009;75;22495;-77
2023/03/17 14:02:21;;;;;;;;;;;;;;;20.58;48.23;100601.86;2337698;74;51543;-77
2023/03/17 14:05:27;;;;;;;;;;;;;;;20.62;48.10;100609.01;2321527;76;50342;-77
2023/03/17 14:08:38;;;;;;;;;;;;;;;20.59;48.16;100601.34;2305869;77;51626;-76
2023/03/17 14:11:43;;;;;;;;;;;;;;;20.57;48.16;100604.22;2306371;77;51493;-76
2023/03/17 14:15:05;;;;;;;;;;;;;;;20.57;48.16;100604.22;2282293;77;50287;-76
2023/03/17 14:18:11;;;;;;;;;;;;;;;20.52;48.25;100601.78;2306205;77;50221;-77
2023/03/17 14:24:52;;;;;;;;;;;;;;;20.41;48.46;100583.83;2320779;75;22487;-77
2023/03/17 14:28:15;;;;;;;;;;;;;;;20.39;48.60;100576.98;2323291;75;50348;-79
2023/03/17 14:31:18;;;;;;;;;;;;;;;20.43;48.64;100580.95;2325618;75;50402;-80
2023/03/17 14:34:29;;;;;;;;;;;;;;;20.48;48.55;100571.79;2345581;75;50422;-80
2023/03/17 14:37:35;;;;;;;;;;;;;;;20.55;48.44;100563.28;2358548;75;22372;-79
2023/03/17 14:40:36;;;;;;;;;;;;;;;20.61;48.36;100559.80;2344435;75;22546;-79
2023/03/17 14:43:41;;;;;;;;;;;;;;;20.65;48.20;100553.49;2324722;75;50385;-80
2023/03/17 14:46:43;;;;;;;;;;;;;;;20.65;48.11;100553.00;2319954;75;51569;-79
2023/03/17 14:49:44;;;;;;;;;;;;;;;20.63;48.13;100536.23;2294243;76;50368;-79
2023/03/17 14:52:47;;;;;;;;;;;;;;;20.59;48.20;100527.42;2300106;76;52325;-79
2023/03/17 14:55:50;;;;;;;;;;;;;;;20.56;48.24;100527.82;2322095;75;52330;-80
2023/03/17 14:58:55;;;;;;;;;;;;;;;20.52;48.35;100531.89;2369321;75;50715;-79
2023/03/17 15:09:26;;;;;;;;;;;;;;;20.42;48.62;100530.41;2327065;75;23346;-79
2023/03/17 15:12:45;;;;;;;;;;;;;;;20.47;48.59;100523.07;2358443;75;50817;-80
2023/03/17 15:15:49;;;;;;;;;;;;;;;20.51;48.53;100524.34;2351403;75;22296;-79
2023/03/17 15:18:52;;;;;;;;;;;;;;;20.58;48.38;100518.53;2320792;76;50427;-79
2023/03/17 15:22:01;;;;;;;;;;;;;;;20.60;48.26;100517.83;2322092;76;51029;-79
2023/03/17 15:25:04;;;;;;;;;;;;;;;20.61;48.21;100515.44;2246989;78;22634;-79
2023/03/17 15:28:16;;;;;;;;;;;;;;;20.56;48.24;100509.00;2266568;76;50789;-80
2023/03/17 15:31:23;;;;;;;;;;;;;;;20.52;48.32;100497.77;2239915;78;50048;-80
2023/03/17 15:34:27;;;;;;;;;;;;;;;20.48;48.41;100499.22;2246028;78;22301;-79
2023/03/17 15:37:31;;;;;;;;;;;;;;;20.42;48.51;100498.65;2247589;78;50429;-79
2023/03/17 15:40:37;;;;;;;;;;;;;;;20.40;48.54;100494.02;2248982;77;23329;-78
2023/03/17 15:43:40;;;;;;;;;;;;;;;20.38;48.57;100483.45;2256596;78;51996;-78
2023/03/17 15:46:43;;;;;;;;;;;;;;;20.41;48.64;100480.87;2258460;77;51413;-79
2023/03/17 15:49:45;;;;;;;;;;;;;;;20.44;48.59;100477.27;2260026;76;51678;-78
2023/03/17 15:52:52;;;;;;;;;;;;;;;20.48;48.55;100475.55;2259519;78;52229;-79
2023/03/17 15:55:53;;;;;;;;;;;;;;;20.52;48.47;100476.27;2247088;77;22534;-79
2023/03/17 15:58:56;;;;;;;;;;;;;;;20.55;48.40;100486.67;2254579;77;51548;-78
2023/03/17 16:01:58;;;;;;;;;;;;;;;20.57;48.29;100492.66;2261385;78;22499;-79
2023/03/17 16:05:05;;;;;;;;;;;;;;;20.56;48.28;100491.02;2260303;78;51593;-79
2023/03/17 16:11:43;;;;;;;;;;;;;;;20.49;48.36;100490.63;2268511;76;23166;-77
2023/03/17 16:14:47;;;;;;;;;;;;;;;20.45;48.47;100498.28;2239465;79;50686;-77
2023/03/17 16:17:49;;;;;;;;;;;;;;;20.39;48.58;100499.05;2229938;79;50397;-76
2023/03/17 16:20:52;;;;;;;;;;;;;;;20.36;48.60;100504.31;2247552;76;50314;-77
2023/03/17 16:23:55;;;;;;;;;;;;;;;20.38;48.63;100503.61;2271520;76;50343;-76
2023/03/17 16:26:57;;;;;;;;;;;;;;;20.42;48.61;100494.62;2257912;76;50407;-77
2023/03/17 16:33:39;;;;;;;;;;;;;;;20.48;48.57;100493.02;2330589;75;22355;-80
2023/03/17 16:36:47;;;;;;;;;;;;;;;20.51;48.42;100490.75;2299212;76;51805;-78
2023/03/17 16:39:51;;;;;;;;;;;;;;;20.52;48.38;100479.48;2326150;76;22420;-78
2023/03/17 16:42:52;;;;;;;;;;;;;;;20.50;48.39;100494.97;2299559;76;51500;-77
2023/03/17 16:45:56;;;;;;;;;;;;;;;20.45;48.46;100489.70;2284696;75;52826;-80
2023/03/17 16:49:00;;;;;;;;;;;;;;;20.41;48.52;100484.91;2351268;75;50774;-80
2023/03/17 16:52:03;;;;;;;;;;;;;;;20.37;48.58;100489.86;2297844;76;51476;-80
2023/03/17 16:55:08;;;;;;;;;;;;;;;20.35;48.61;100484.37;2312266;75;52382;-80